Time;durP1;ratioP1;P1;durP2;ratioP2;P2;SDS_P1;SDS_P2;PMS_P1;PMS_P2;Temp;Humidity;BMP_temperature;BMP_pressure;BME280_temperature;BME280_humidity;BME280_pressure;Samples;Min_cycle;Max_cycle;Signal;HPM_P1;HPM_P2
2021/09/08 00:00:53;;;;;;;13.53;10.57;;;;;;;12.12;82.83;100107.91;5050358;28;20227;-80
2021/09/08 00:03:31;;;;;;;12.80;10.53;;;;;;;12.23;82.50;100123.31;5050834;23;20234;-80
2021/09/08 00:06:07;;;;;;;14.73;11.73;;;;;;;12.23;82.84;100123.31;5091734;23;20233;-80
2021/09/08 00:08:34;;;;;;;11.67;10.47;;;;;;;12.21;83.02;100119.19;5074191;28;20185;-79
2021/09/08 00:11:03;;;;;;;13.97;11.87;;;;;;;12.16;83.05;100114.50;5040489;28;20190;-80
2021/09/08 00:13:49;;;;;;;14.17;11.47;;;;;;;12.18;83.25;100120.44;5088301;23;20224;-79
2021/09/08 00:16:25;;;;;;;12.67;11.40;;;;;;;12.16;83.26;100116.34;5073205;28;20212;-80
2021/09/08 00:18:54;;;;;;;13.03;11.03;;;;;;;12.10;83.36;100109.16;5091001;28;20215;-80
2021/09/08 00:21:25;;;;;;;13.90;11.97;;;;;;;12.06;83.49;100113.31;5090238;28;20234;-80
2021/09/08 00:23:52;;;;;;;13.03;11.73;;;;;;;12.02;83.97;100114.78;5090477;28;20229;-79
2021/09/08 00:26:28;;;;;;;13.77;12.33;;;;;;;12.02;84.25;100117.47;5090469;28;20307;-79
2021/09/08 00:32:10;;;;;;;12.50;11.20;;;;;;;11.90;84.07;100104.72;5030513;23;20218;-80
2021/09/08 00:34:58;;;;;;;13.43;11.83;;;;;;;12.00;83.90;100114.16;5037692;28;20190;-80
2021/09/08 00:37:29;;;;;;;12.97;11.23;;;;;;;11.98;84.05;100121.66;5078640;22;20232;-80
2021/09/08 00:40:07;;;;;;;12.97;11.43;;;;;;;11.84;83.99;100111.00;5159761;23;20216;-80
2021/09/08 00:42:49;;;;;;;13.93;11.53;;;;;;;11.90;84.42;100120.84;5186415;22;20240;-79
2021/09/08 00:45:40;;;;;;;13.93;12.43;;;;;;;11.95;84.80;100116.69;5091657;28;20236;-80
2021/09/08 00:48:19;;;;;;;15.27;12.53;;;;;;;12.00;85.04;100123.06;5097584;23;20228;-80
2021/09/08 00:51:10;;;;;;;14.00;12.20;;;;;;;12.03;84.60;100119.97;5077652;28;20231;-80
2021/09/08 00:54:00;;;;;;;13.87;12.40;;;;;;;12.02;84.65;100121.00;5091476;28;20239;-80
2021/09/08 00:56:28;;;;;;;14.33;12.83;;;;;;;12.00;84.64;100127.59;5073968;28;20181;-80
2021/09/08 00:59:05;;;;;;;14.07;12.00;;;;;;;11.98;84.82;100124.31;5090423;28;20244;-80
2021/09/08 01:02:06;;;;;;;18.10;12.53;;;;;;;11.98;84.81;100124.31;5098700;23;20291;-80
2021/09/08 01:05:00;;;;;;;16.27;12.43;;;;;;;11.93;84.98;100116.09;5188625;22;20296;-80
2021/09/08 01:07:53;;;;;;;14.83;11.70;;;;;;;11.97;84.97;100128.03;5091436;23;20224;-80
2021/09/08 01:10:57;;;;;;;15.73;12.40;;;;;;;11.83;84.99;100103.97;5067882;28;20816;-80
2021/09/08 01:13:47;;;;;;;14.17;11.87;;;;;;;11.91;85.14;100121.66;5066479;28;20200;-81
2021/09/08 01:16:17;;;;;;;14.83;12.40;;;;;;;11.88;84.88;100109.50;5050380;28;20212;-80
2021/09/08 01:18:57;;;;;;;15.43;12.43;;;;;;;11.96;85.24;100113.78;5050609;28;20204;-80
2021/09/08 01:21:30;;;;;;;13.60;12.03;;;;;;;11.97;85.19;100117.31;5066781;28;20232;-80
2021/09/08 01:24:22;;;;;;;14.40;12.27;;;;;;;11.97;85.25;100110.06;5059848;28;20229;-80
2021/09/08 01:26:59;;;;;;;16.33;12.53;;;;;;;11.93;85.20;100106.19;5046471;28;20226;-80
2021/09/08 01:29:27;;;;;;;14.53;12.80;;;;;;;11.96;85.55;100100.38;5047059;28;20256;-81
2021/09/08 01:32:31;;;;;;;14.07;12.17;;;;;;;12.02;85.19;100104.88;5089299;22;20246;-80
2021/09/08 01:35:01;;;;;;;15.07;12.83;;;;;;;11.98;85.61;100105.53;5050027;23;20256;-80
2021/09/08 01:37:29;;;;;;;15.30;12.77;;;;;;;12.01;85.24;100105.09;5065907;28;20228;-80
2021/09/08 01:40:03;;;;;;;14.90;12.70;;;;;;;11.91;85.13;100092.13;5087165;22;20263;-80
2021/09/08 01:42:39;;;;;;;13.97;12.23;;;;;;;11.95;84.92;100104.09;5086352;28;20280;-80
2021/09/08 01:45:24;;;;;;;14.80;12.97;;;;;;;11.93;84.95;100103.50;5087761;28;20259;-79
2021/09/08 01:51:04;;;;;;;13.83;12.33;;;;;;;11.89;84.75;100100.44;5124097;22;20258;-81
2021/09/08 01:53:35;;;;;;;12.37;11.17;;;;;;;11.82;84.95;100093.44;5121292;22;20226;-80
2021/09/08 01:56:08;;;;;;;14.40;12.07;;;;;;;11.82;85.12;100093.44;5209312;22;20226;-79
2021/09/08 01:58:58;;;;;;;12.93;11.50;;;;;;;11.87;85.42;100097.13;5110196;22;20251;-78
2021/09/08 02:01:28;;;;;;;14.03;12.50;;;;;;;11.83;85.36;100084.34;5098977;28;20238;-80
2021/09/08 02:04:15;;;;;;;13.73;12.37;;;;;;;11.89;85.04;100089.69;5139717;22;20215;-79
2021/09/08 02:07:25;;;;;;;14.83;12.40;;;;;;;11.85;85.35;100095.72;5113149;22;20219;-79
2021/09/08 02:10:31;;;;;;;15.37;12.50;;;;;;;11.71;85.08;100070.75;5136348;22;20677;-80
2021/09/08 02:13:14;;;;;;;17.80;13.00;;;;;;;11.71;85.36;100080.69;5135460;22;20227;-79
2021/09/08 02:15:46;;;;;;;15.60;13.23;;;;;;;11.69;85.54;100085.44;5129422;28;20211;-79
2021/09/08 02:18:22;;;;;;;14.30;12.70;;;;;;;11.65;85.29;100089.59;5141482;22;20710;-80
2021/09/08 02:21:05;;;;;;;13.30;12.00;;;;;;;11.60;85.10;100084.06;5114235;22;20220;-80
2021/09/08 02:23:47;;;;;;;16.57;12.73;;;;;;;11.61;85.28;100091.91;5111516;23;20250;-79
2021/09/08 02:26:33;;;;;;;14.33;12.33;;;;;;;11.59;85.24;100090.44;5092979;23;20228;-80
2021/09/08 02:29:21;;;;;;;13.43;12.00;;;;;;;11.49;85.20;100097.09;5106060;23;20232;-80
2021/09/08 02:31:53;;;;;;;14.17;12.67;;;;;;;11.32;84.93;100081.72;5101120;23;20296;-80
2021/09/08 02:34:23;;;;;;;14.97;12.57;;;;;;;11.32;85.27;100087.91;5094421;28;20303;-80
2021/09/08 02:37:09;;;;;;;14.50;11.70;;;;;;;11.34;85.24;100101.09;5080162;28;20228;-81
2021/09/08 02:39:46;;;;;;;13.83;12.33;;;;;;;11.31;85.30;100096.16;5094486;28;20208;-80
2021/09/08 02:42:18;;;;;;;13.20;11.87;;;;;;;11.29;85.07;100099.03;5094128;28;20227;-79
2021/09/08 02:44:49;;;;;;;15.20;12.87;;;;;;;11.22;85.56;100095.56;5074911;22;20216;-80
2021/09/08 02:47:39;;;;;;;14.27;12.77;;;;;;;11.18;85.48;100089.00;5115794;28;20212;-79
2021/09/08 02:50:39;;;;;;;14.67;12.90;;;;;;;11.19;85.55;100096.00;5112681;22;20228;-80
2021/09/08 02:53:49;;;;;;;14.23;12.73;;;;;;;11.15;85.38;100086.72;5089705;22;20200;-80
2021/09/08 02:56:57;;;;;;;14.87;13.27;;;;;;;11.08;85.41;100082.44;5063118;28;20232;-80
2021/09/08 03:04:08;;;;;;;14.40;12.87;;;;;;;10.95;85.25;100078.75;5118922;22;20235;-80
2021/09/08 03:07:45;;;;;;;14.27;12.87;;;;;;;10.97;85.40;100091.94;5104309;22;20259;-80
2021/09/08 03:11:10;;;;;;;14.13;12.73;;;;;;;10.91;85.41;100085.59;5103262;23;20216;-80
2021/09/08 03:14:27;;;;;;;14.63;13.13;;;;;;;10.89;85.68;100084.97;5102764;23;20223;-80
2021/09/08 03:18:04;;;;;;;15.03;13.43;;;;;;;10.89;85.80;100087.63;5206980;22;20236;-80
2021/09/08 03:21:28;;;;;;;14.83;13.17;;;;;;;10.88;86.12;100091.34;5102224;23;20237;-80
2021/09/08 03:24:33;;;;;;;14.80;13.30;;;;;;;10.82;85.92;100086.03;5108690;22;20252;-80
2021/09/08 03:28:13;;;;;;;14.30;12.70;;;;;;;10.84;86.22;100082.09;5074737;28;20264;-80
2021/09/08 03:31:13;;;;;;;15.00;13.50;;;;;;;10.84;86.37;100092.81;5052403;28;20217;-80
2021/09/08 03:34:33;;;;;;;14.43;12.93;;;;;;;10.82;86.23;100092.22;5129379;23;20215;-80
2021/09/08 03:37:48;;;;;;;14.47;12.97;;;;;;;10.77;86.03;100097.38;5093530;23;20218;-79
2021/09/08 03:40:58;;;;;;;15.80;13.57;;;;;;;10.73;86.50;100092.63;5108072;23;20227;-80
2021/09/08 03:44:14;;;;;;;14.10;12.77;;;;;;;10.62;86.29;100078.03;5087090;22;20248;-80
2021/09/08 03:47:46;;;;;;;14.60;13.10;;;;;;;10.68;86.34;100090.59;5085218;23;20228;-81
2021/09/08 03:50:56;;;;;;;15.37;13.30;;;;;;;10.57;86.22;100084.00;5093257;23;20233;-80
2021/09/08 03:54:04;;;;;;;15.37;13.87;;;;;;;10.61;86.37;100092.44;5154811;23;20233;-79
2021/09/08 03:56:59;;;;;;;14.33;12.83;;;;;;;10.50;86.13;100083.16;5089206;22;20275;-80
2021/09/08 04:00:09;;;;;;;13.70;12.30;;;;;;;10.55;86.34;100095.94;5130514;22;20242;-79
2021/09/08 04:03:10;;;;;;;13.77;12.17;;;;;;;10.49;86.21;100097.63;5118984;22;20283;-81
2021/09/08 04:06:18;;;;;;;13.83;12.37;;;;;;;10.35;86.09;100089.78;5094734;22;20197;-80
2021/09/08 04:10:05;;;;;;;14.80;13.30;;;;;;;10.41;86.13;100103.16;5015736;28;20288;-80
2021/09/08 04:12:58;;;;;;;14.90;13.23;;;;;;;10.36;86.55;100097.59;5095023;22;20269;-80
2021/09/08 04:16:12;;;;;;;14.40;12.93;;;;;;;10.35;86.25;100112.06;5106384;28;20266;-80
2021/09/08 04:19:37;;;;;;;13.77;12.30;;;;;;;10.33;86.32;100107.91;5303054;22;20224;-80
2021/09/08 04:23:28;;;;;;;13.77;11.90;;;;;;;10.22;86.29;100097.84;5094468;23;20235;-80
2021/09/08 04:26:54;;;;;;;14.23;12.73;;;;;;;10.31;86.47;100110.78;5120921;22;20295;-81
2021/09/08 04:30:38;;;;;;;16.47;13.00;;;;;;;10.30;86.39;100105.66;5206621;22;20249;-81
2021/09/08 04:33:20;;;;;;;13.90;12.37;;;;;;;10.33;86.40;100116.78;5308615;22;20226;-82
2021/09/08 04:36:25;;;;;;;15.07;12.40;;;;;;;10.10;86.04;100081.50;5104957;22;20208;-81
2021/09/08 04:39:30;;;;;;;13.60;12.20;;;;;;;10.11;86.00;100065.25;5114242;22;20256;-82
2021/09/08 04:42:50;;;;;;;13.57;12.17;;;;;;;10.38;86.03;100105.44;5098160;22;20217;-82
2021/09/08 04:46:23;;;;;;;13.73;12.33;;;;;;;10.45;85.61;100106.28;5278267;22;20248;-82
2021/09/08 04:49:18;;;;;;;13.80;12.27;;;;;;;10.47;85.23;100110.38;5057382;28;20213;-82
2021/09/08 04:52:59;;;;;;;13.63;12.17;;;;;;;10.54;85.17;100113.88;5097448;23;20220;-81
2021/09/08 04:56:40;;;;;;;14.87;12.80;;;;;;;10.66;85.20;100121.28;5114723;28;20216;-81
2021/09/08 05:00:01;;;;;;;14.93;12.60;;;;;;;10.79;85.44;100122.09;5102556;23;20296;-82
2021/09/08 05:03:04;;;;;;;16.40;12.97;;;;;;;10.87;85.25;100097.75;5175976;22;20222;-81
2021/09/08 05:06:34;;;;;;;14.00;12.27;;;;;;;10.97;85.12;100082.03;5090293;22;20222;-81
2021/09/08 05:10:28;;;;;;;14.60;12.43;;;;;;;11.33;84.73;100110.19;5084099;22;20224;-82
2021/09/08 05:13:49;;;;;;;15.50;12.20;;;;;;;11.52;84.44;100117.34;5220613;22;20241;-82
2021/09/08 05:16:26;;;;;;;14.60;13.10;;;;;;;11.66;84.49;100123.47;5069885;22;20217;-80
2021/09/08 05:19:39;;;;;;;14.80;12.53;;;;;;;11.80;83.90;100128.53;5093354;22;20205;-80
2021/09/08 05:22:58;;;;;;;13.73;12.20;;;;;;;11.98;83.23;100127.00;5071136;28;20225;-79
2021/09/08 05:26:33;;;;;;;13.37;12.07;;;;;;;12.17;83.15;100126.06;5156591;22;20225;-79
2021/09/08 05:30:21;;;;;;;12.97;11.77;;;;;;;12.45;82.16;100131.00;5101612;22;20217;-79
2021/09/08 05:33:48;;;;;;;13.40;11.97;;;;;;;12.67;81.20;100129.56;5011941;28;20252;-79
2021/09/08 05:37:07;;;;;;;13.23;11.83;;;;;;;12.86;80.86;100117.78;5079684;22;20224;-79
2021/09/08 05:39:59;;;;;;;13.50;12.20;;;;;;;13.03;80.91;100118.84;5094536;28;20222;-79
2021/09/08 05:42:55;;;;;;;13.20;11.70;;;;;;;13.18;80.37;100130.09;5120968;22;20215;-79
2021/09/08 05:45:59;;;;;;;12.97;11.20;;;;;;;13.37;78.77;100130.09;5099700;22;20224;-80
2021/09/08 05:49:03;;;;;;;13.80;10.97;;;;;;;13.46;79.13;100126.03;5070809;23;20208;-80
2021/09/08 05:51:58;;;;;;;12.67;11.37;;;;;;;13.55;78.93;100122.81;5404436;23;20246;-79
2021/09/08 05:55:28;;;;;;;14.97;11.47;;;;;;;13.88;77.63;100124.22;5093811;28;20713;-79
2021/09/08 05:58:58;;;;;;;12.87;11.47;;;;;;;14.04;76.55;100131.69;5125866;22;20235;-78
2021/09/08 06:02:08;;;;;;;15.87;11.43;;;;;;;14.29;75.71;100135.00;5077819;23;20226;-79
2021/09/08 06:04:54;;;;;;;14.23;10.83;;;;;;;14.33;74.75;100108.41;5094876;23;20232;-80
2021/09/08 06:07:38;;;;;;;14.53;11.20;;;;;;;14.60;74.55;100128.53;5082316;28;20190;-80
2021/09/08 06:10:45;;;;;;;16.07;11.70;;;;;;;14.76;74.04;100130.50;5290687;22;20298;-78
2021/09/08 06:14:26;;;;;;;12.30;11.00;;;;;;;14.97;73.02;100127.25;4943611;28;20269;-87
2021/09/08 06:17:51;;;;;;;12.37;10.73;;;;;;;15.16;72.28;100119.00;5065766;23;20232;-89
2021/09/08 06:20:27;;;;;;;12.37;11.07;;;;;;;15.33;71.98;100120.72;5062291;28;20229;-91
2021/09/08 06:22:54;;;;;;;12.30;11.10;;;;;;;15.46;71.45;100119.63;5024894;28;20235;-90
2021/09/08 06:25:22;;;;;;;13.00;11.60;;;;;;;15.58;71.09;100112.34;5021226;28;20324;-89
2021/09/08 06:27:48;;;;;;;12.03;10.83;;;;;;;15.70;70.52;100129.31;5023170;28;20231;-87
2021/09/08 06:30:15;;;;;;;10.80;9.80;;;;;;;15.84;69.86;100124.44;5006210;28;20228;-90
2021/09/08 06:32:42;;;;;;;12.13;10.80;;;;;;;15.86;69.50;100109.63;5039897;28;20227;-90
2021/09/08 06:35:09;;;;;;;11.73;10.43;;;;;;;16.03;69.22;100117.78;5007629;28;20228;-89
2021/09/08 06:37:36;;;;;;;12.50;10.10;;;;;;;16.09;68.54;100116.81;5040202;28;20634;-88
2021/09/08 06:40:04;;;;;;;12.60;10.43;;;;;;;16.26;68.07;100125.75;5019978;28;20695;-92
2021/09/08 06:42:31;;;;;;;11.53;10.30;;;;;;;16.36;66.75;100121.56;5020169;28;20244;-92
2021/09/08 06:45:03;;;;;;;11.20;9.33;;;;;;;16.52;66.59;100126.97;5012208;28;20631;-91
2021/09/08 06:47:30;;;;;;;12.73;10.17;;;;;;;16.64;66.26;100135.88;5056157;28;20226;-90
2021/09/08 06:49:59;;;;;;;12.53;10.47;;;;;;;16.75;64.54;100133.31;5003977;28;20264;-91
2021/09/08 06:52:26;;;;;;;10.97;9.70;;;;;;;16.85;65.08;100126.16;5020993;28;20265;-92
2021/09/08 06:54:52;;;;;;;12.20;9.80;;;;;;;16.91;64.54;100127.06;4988212;28;20230;-93
2021/09/08 06:57:19;;;;;;;11.57;10.17;;;;;;;17.03;64.64;100114.25;5006314;28;20303;-92
2021/09/08 06:59:46;;;;;;;11.50;10.27;;;;;;;17.10;63.66;100126.53;5031376;28;20220;-93
2021/09/08 07:02:13;;;;;;;13.87;9.77;;;;;;;17.26;63.72;100113.19;5049901;28;20278;-90
2021/09/08 07:04:40;;;;;;;10.90;9.80;;;;;;;17.48;62.97;100120.25;5034934;28;20225;-88
2021/09/08 07:07:07;;;;;;;12.83;9.67;;;;;;;17.44;61.79;100115.59;5020042;28;20637;-91
2021/09/08 07:09:33;;;;;;;12.37;9.67;;;;;;;17.56;62.37;100114.38;5013883;28;20309;-90
2021/09/08 07:12:00;;;;;;;11.00;9.57;;;;;;;17.82;61.49;100114.69;5003746;28;20649;-91
2021/09/08 07:14:27;;;;;;;11.13;10.00;;;;;;;17.89;60.06;100116.13;5019515;28;20226;-89
2021/09/08 07:16:54;;;;;;;12.90;10.20;;;;;;;18.05;59.63;100117.09;5052531;28;20229;-88
2021/09/08 07:19:21;;;;;;;11.50;10.13;;;;;;;18.14;59.10;100112.84;5044476;28;20560;-91
2021/09/08 07:21:48;;;;;;;12.63;10.03;;;;;;;18.28;59.06;100110.53;5030486;28;20233;-89
2021/09/08 07:24:14;;;;;;;10.47;9.40;;;;;;;18.45;59.65;100127.47;5003140;28;20299;-92
2021/09/08 07:26:43;;;;;;;13.97;9.80;;;;;;;18.46;59.11;100119.09;5022599;28;20225;-92
2021/09/08 07:29:10;;;;;;;11.70;9.83;;;;;;;18.53;59.46;100118.03;5035565;28;20310;-91
2021/09/08 07:31:37;;;;;;;15.70;10.33;;;;;;;18.60;59.55;100115.97;5030728;28;20228;-85
2021/09/08 07:34:04;;;;;;;12.10;9.83;;;;;;;18.71;59.14;100112.25;5038437;28;20232;-91
2021/09/08 07:36:30;;;;;;;12.03;9.87;;;;;;;18.83;57.66;100110.16;5050362;28;20245;-87
2021/09/08 07:38:57;;;;;;;11.50;9.30;;;;;;;18.94;57.80;100114.56;5038129;28;20234;-90
2021/09/08 07:41:24;;;;;;;11.50;9.60;;;;;;;19.08;57.62;100106.78;5035953;28;20238;-89
2021/09/08 07:43:51;;;;;;;13.43;11.53;;;;;;;19.14;59.11;100101.09;5018595;28;20246;-91
2021/09/08 07:46:18;;;;;;;11.27;9.80;;;;;;;19.21;57.51;100117.16;5043770;28;20244;-87
2021/09/08 07:48:44;;;;;;;12.33;10.10;;;;;;;19.33;56.84;100109.59;5047196;28;20228;-89
2021/09/08 07:51:11;;;;;;;11.00;9.47;;;;;;;19.33;57.18;100106.88;5048655;28;20614;-89
2021/09/08 07:53:38;;;;;;;11.20;9.47;;;;;;;19.51;57.33;100113.75;5037585;28;20315;-89
2021/09/08 07:56:05;;;;;;;16.10;10.30;;;;;;;19.54;57.44;100108.63;5004173;28;20331;-90
2021/09/08 07:58:32;;;;;;;11.37;9.83;;;;;;;19.71;56.55;100122.81;5044402;28;20236;-86
2021/09/08 08:00:59;;;;;;;11.87;9.73;;;;;;;19.72;56.42;100118.19;5037705;28;20697;-87
2021/09/08 08:03:26;;;;;;;13.10;9.77;;;;;;;19.82;55.27;100111.97;5037743;28;20225;-88
2021/09/08 08:05:53;;;;;;;10.10;9.10;;;;;;;19.96;55.07;100113.91;5070546;28;20222;-90
2021/09/08 08:08:20;;;;;;;12.13;8.93;;;;;;;20.09;54.77;100118.00;5037548;28;20283;-90
2021/09/08 08:10:47;;;;;;;13.53;9.30;;;;;;;20.23;54.56;100116.38;5037954;28;20226;-87
2021/09/08 08:13:13;;;;;;;10.20;9.07;;;;;;;20.32;54.26;100105.81;5037526;28;20255;-89
2021/09/08 08:15:41;;;;;;;11.47;9.20;;;;;;;20.47;53.43;100117.50;5053961;28;20260;-91
2021/09/08 08:18:08;;;;;;;14.20;9.23;;;;;;;20.56;53.17;100115.88;5047719;28;20292;-90
2021/09/08 08:20:35;;;;;;;12.17;9.00;;;;;;;20.65;53.09;100108.78;5017920;28;20252;-91
2021/09/08 08:23:02;;;;;;;13.47;8.87;;;;;;;20.80;53.29;100109.84;5046149;28;20224;-88
2021/09/08 08:25:30;;;;;;;10.30;8.60;;;;;;;20.90;52.81;100105.19;5020352;28;20234;-88
2021/09/08 08:27:58;;;;;;;12.43;8.63;;;;;;;20.95;52.10;100102.44;5036503;28;20707;-89
2021/09/08 08:30:25;;;;;;;10.17;8.17;;;;;;;21.15;53.20;100107.06;5019155;28;20232;-89
2021/09/08 08:32:52;;;;;;;11.93;8.27;;;;;;;21.28;52.64;100114.66;5036784;28;20264;-89
2021/09/08 08:35:19;;;;;;;9.67;7.90;;;;;;;21.38;51.11;100097.44;5036802;28;20231;-87
2021/09/08 08:37:48;;;;;;;10.33;7.63;;;;;;;21.53;51.36;100091.91;5020618;28;20226;-91
2021/09/08 08:40:15;;;;;;;10.50;8.10;;;;;;;21.65;50.57;100097.84;5037019;28;20251;-89
2021/09/08 08:42:42;;;;;;;9.50;8.00;;;;;;;21.72;49.92;100089.38;5036613;28;20647;-90
2021/09/08 08:45:12;;;;;;;10.10;7.40;;;;;;;21.80;49.97;100092.31;5053153;28;20239;-88
2021/09/08 08:47:39;;;;;;;7.87;7.07;;;;;;;22.11;49.25;100094.88;5036786;28;20233;-85
2021/09/08 08:50:11;;;;;;;9.73;7.40;;;;;;;22.20;49.67;100082.25;5019462;28;20264;-84
2021/09/08 08:52:38;;;;;;;8.10;6.53;;;;;;;22.36;48.89;100076.38;5052668;28;20240;-88
2021/09/08 08:55:05;;;;;;;8.03;7.13;;;;;;;22.51;47.89;100080.88;5035898;28;20223;-89
2021/09/08 08:57:32;;;;;;;9.37;7.50;;;;;;;22.70;47.63;100079.09;5037293;28;20254;-89
2021/09/08 08:59:59;;;;;;;8.53;7.03;;;;;;;22.73;47.23;100067.59;5053462;28;20633;-89
2021/09/08 09:02:31;;;;;;;8.47;7.03;;;;;;;22.78;46.86;100062.06;5052611;28;20229;-88
2021/09/08 09:05:04;;;;;;;8.20;6.73;;;;;;;23.02;47.08;100062.09;5036859;28;20245;-87
2021/09/08 09:07:32;;;;;;;8.00;6.70;;;;;;;23.32;45.89;100079.22;5017441;28;20287;-88
2021/09/08 09:10:03;;;;;;;9.73;6.57;;;;;;;23.51;46.13;100075.44;5033524;28;20663;-89
2021/09/08 09:12:38;;;;;;;10.77;6.20;;;;;;;23.63;42.63;100066.78;5009649;28;20232;-88
2021/09/08 09:15:07;;;;;;;7.93;5.93;;;;;;;23.73;43.09;100055.72;5053581;28;20578;-84
2021/09/08 09:17:36;;;;;;;8.13;6.33;;;;;;;24.02;41.65;100052.81;5054716;28;20224;-89
2021/09/08 09:20:29;;;;;;;7.90;5.53;;;;;;;24.17;40.24;100058.06;5053919;28;20243;-89
2021/09/08 09:23:04;;;;;;;6.25;5.35;;;;;;;24.29;39.86;100054.88;5046917;28;20575;-88
2021/09/08 09:25:35;;;;;;;8.80;5.80;;;;;;;24.51;39.60;100057.75;5054313;28;20359;-84
2021/09/08 09:28:07;;;;;;;7.00;5.80;;;;;;;24.58;38.85;100047.22;5053085;28;20243;-83
2021/09/08 09:30:38;;;;;;;6.57;5.97;;;;;;;24.71;38.96;100040.97;5034561;28;20257;-87
2021/09/08 09:33:29;;;;;;;8.02;5.72;;;;;;;24.78;39.89;100035.06;5043853;28;20652;-88
2021/09/08 09:35:57;;;;;;;6.93;5.90;;;;;;;24.85;38.78;100039.03;5040563;28;20248;-86
2021/09/08 09:38:26;;;;;;;6.65;5.75;;;;;;;24.97;38.88;100049.50;5057092;28;20233;-88
2021/09/08 09:40:52;;;;;;;6.70;6.10;;;;;;;24.98;38.22;100037.44;5057583;28;20222;-88
2021/09/08 09:43:19;;;;;;;8.85;6.13;;;;;;;24.93;39.32;100021.91;5040628;28;20232;-88
2021/09/08 09:45:46;;;;;;;6.68;5.78;;;;;;;25.00;38.89;100027.00;5057222;28;20236;-85
2021/09/08 09:48:14;;;;;;;7.55;6.30;;;;;;;25.21;38.77;100027.38;5056931;28;20226;-89
2021/09/08 09:50:46;;;;;;;7.18;6.20;;;;;;;25.30;37.58;100022.78;5057007;28;20246;-89
2021/09/08 09:53:14;;;;;;;7.40;5.47;;;;;;;25.44;38.26;100032.63;5057243;28;20249;-89
2021/09/08 09:55:41;;;;;;;6.28;5.68;;;;;;;25.57;37.17;100027.44;5024382;28;20231;-88
2021/09/08 09:58:08;;;;;;;8.27;6.00;;;;;;;25.64;37.90;100022.34;5040113;28;20329;-89
2021/09/08 10:00:34;;;;;;;6.03;5.53;;;;;;;25.68;38.14;100023.34;5056910;28;20222;-88
2021/09/08 10:03:02;;;;;;;7.45;6.20;;;;;;;25.75;37.18;100015.50;5056076;28;20312;-89
2021/09/08 10:05:29;;;;;;;9.23;6.07;;;;;;;25.94;37.00;100005.16;5040183;28;20678;-87
2021/09/08 10:07:56;;;;;;;6.28;5.72;;;;;;;26.02;37.54;100015.38;5057648;28;20658;-89
2021/09/08 10:10:29;;;;;;;7.97;5.50;;;;;;;26.01;36.07;100016.50;5056241;28;20231;-89
2021/09/08 10:13:08;;;;;;;8.15;5.80;;;;;;;26.06;36.01;100002.66;5039839;28;20248;-88
2021/09/08 10:15:35;;;;;;;6.40;5.80;;;;;;;25.94;36.43;100001.59;5055515;28;20344;-83
2021/09/08 10:18:10;;;;;;;6.45;5.82;;;;;;;26.06;36.66;99990.84;5039744;28;20239;-87
2021/09/08 10:20:37;;;;;;;6.32;5.72;;;;;;;26.08;35.99;99999.59;5056145;28;20254;-85
2021/09/08 10:23:12;;;;;;;6.32;5.72;;;;;;;26.03;36.56;99991.50;5039617;28;20233;-87
2021/09/08 10:25:48;;;;;;;7.55;6.18;;;;;;;26.05;36.55;99983.72;5039574;28;20251;-85
2021/09/08 10:28:18;;;;;;;9.10;5.97;;;;;;;26.01;37.26;99994.53;5038949;28;20324;-88
2021/09/08 10:30:46;;;;;;;7.03;6.28;;;;;;;26.24;37.43;99973.38;5023100;28;20276;-89
2021/09/08 10:33:13;;;;;;;6.75;6.13;;;;;;;26.19;36.29;99974.28;5055811;28;20243;-87
2021/09/08 10:35:41;;;;;;;7.25;5.90;;;;;;;26.30;37.05;99983.13;5040124;28;20252;-87
2021/09/08 10:38:17;;;;;;;6.78;6.00;;;;;;;26.20;38.25;99986.91;5022494;28;20637;-86
2021/09/08 10:40:46;;;;;;;7.55;5.97;;;;;;;26.33;34.71;99976.97;5039759;28;20227;-86
2021/09/08 10:43:13;;;;;;;5.88;5.30;;;;;;;26.33;34.59;99976.16;5039024;28;20228;-85
2021/09/08 10:45:52;;;;;;;7.45;5.25;;;;;;;26.35;33.67;99968.44;5056261;28;20225;-89
2021/09/08 10:48:38;;;;;;;6.70;5.78;;;;;;;26.60;31.48;99978.72;5053953;28;20259;-87
2021/09/08 10:51:10;;;;;;;6.93;5.53;;;;;;;26.57;31.23;99977.44;5055765;28;20228;-88
2021/09/08 10:53:38;;;;;;;7.53;5.38;;;;;;;26.71;30.62;99964.38;5039023;28;20361;-88
2021/09/08 10:56:06;;;;;;;6.28;4.78;;;;;;;26.62;30.23;99962.72;5038642;28;20243;-90
2021/09/08 10:58:56;;;;;;;5.43;4.88;;;;;;;26.86;29.56;99974.16;5038764;28;20310;-87
2021/09/08 11:01:23;;;;;;;5.50;5.00;;;;;;;26.91;29.11;99974.03;5023096;28;20217;-88
2021/09/08 11:03:51;;;;;;;6.72;4.85;;;;;;;26.92;29.19;99961.88;5028826;28;20538;-87
2021/09/08 11:06:33;;;;;;;6.35;5.10;;;;;;;26.96;28.97;99956.56;5018826;28;20230;-87
2021/09/08 11:09:02;;;;;;;5.18;4.75;;;;;;;27.20;29.43;99956.13;5036454;28;20573;-88
2021/09/08 11:11:29;;;;;;;5.30;4.80;;;;;;;27.33;28.20;99958.72;5035437;28;20257;-87
2021/09/08 11:13:56;;;;;;;7.55;5.07;;;;;;;27.36;27.28;99946.25;5002457;28;20229;-85
2021/09/08 11:16:27;;;;;;;8.80;5.10;;;;;;;27.33;27.54;99949.66;5018415;28;20254;-88
2021/09/08 11:18:56;;;;;;;5.75;4.70;;;;;;;27.31;27.37;99941.72;5035044;28;20695;-87
2021/09/08 11:21:25;;;;;;;5.53;4.93;;;;;;;27.32;28.09;99926.84;5002624;28;20227;-87
2021/09/08 11:23:57;;;;;;;5.90;5.32;;;;;;;27.47;27.36;99931.06;5002145;28;20254;-87
2021/09/08 11:26:25;;;;;;;8.73;5.32;;;;;;;27.53;27.83;99938.03;5018124;28;20283;-85
2021/09/08 11:28:57;;;;;;;9.50;5.15;;;;;;;27.37;27.20;99918.44;5034827;28;20302;-89
2021/09/08 11:31:24;;;;;;;7.45;4.95;;;;;;;27.56;28.13;99932.69;5036102;28;20647;-89
2021/09/08 11:33:51;;;;;;;7.50;5.18;;;;;;;27.68;28.01;99920.22;5038038;28;20349;-88
2021/09/08 11:36:19;;;;;;;5.20;4.70;;;;;;;27.79;27.25;99927.00;5054872;28;20649;-86
2021/09/08 11:38:49;;;;;;;5.95;5.30;;;;;;;27.69;27.22;99924.59;5055288;28;20233;-89
2021/09/08 11:41:17;;;;;;;11.65;5.13;;;;;;;27.87;26.81;99928.94;5038914;28;20229;-88
2021/09/08 11:43:47;;;;;;;8.43;5.15;;;;;;;27.84;27.23;99929.59;5055109;28;20236;-88
2021/09/08 11:46:19;;;;;;;5.57;4.97;;;;;;;27.75;27.79;99928.78;5038368;28;20307;-88
2021/09/08 11:49:06;;;;;;;7.85;4.95;;;;;;;27.76;27.17;99914.72;5054962;28;20637;-88
2021/09/08 11:51:35;;;;;;;5.15;4.70;;;;;;;27.76;27.93;99919.41;5038370;28;20229;-88
2021/09/08 11:54:07;;;;;;;6.35;4.85;;;;;;;27.85;27.86;99920.19;5037298;28;20259;-87
2021/09/08 11:56:38;;;;;;;10.95;5.00;;;;;;;27.85;27.49;99900.94;5038970;28;20232;-88
2021/09/08 11:59:04;;;;;;;6.03;4.90;;;;;;;27.97;27.91;99909.31;5055265;28;20283;-83
2021/09/08 12:01:33;;;;;;;5.65;4.50;;;;;;;28.09;27.66;99919.66;5038637;28;20320;-87
2021/09/08 12:04:02;;;;;;;5.57;4.88;;;;;;;28.24;26.52;99913.63;5026243;28;20637;-81
2021/09/08 12:06:31;;;;;;;4.97;4.50;;;;;;;28.13;26.50;99915.94;5018566;28;20230;-88
2021/09/08 12:09:16;;;;;;;5.40;4.90;;;;;;;28.25;26.45;99904.22;5018326;28;20250;-85
2021/09/08 12:11:48;;;;;;;5.03;4.60;;;;;;;28.46;26.51;99919.69;5034669;28;20308;-89
2021/09/08 12:14:23;;;;;;;5.88;4.80;;;;;;;28.38;25.46;99905.94;5017802;28;20229;-90
2021/09/08 12:16:57;;;;;;;7.00;4.65;;;;;;;28.32;25.52;99897.06;5001199;28;20660;-86
2021/09/08 12:19:31;;;;;;;5.70;4.80;;;;;;;28.33;26.31;99893.16;5034381;28;20249;-86
2021/09/08 12:22:16;;;;;;;5.20;4.70;;;;;;;28.44;24.96;99894.41;5017830;28;20316;-87
2021/09/08 12:24:46;;;;;;;5.75;4.32;;;;;;;28.36;25.26;99892.53;5019983;28;20309;-89
2021/09/08 12:27:25;;;;;;;5.18;4.30;;;;;;;28.28;25.08;99885.09;5034276;28;20665;-89
2021/09/08 12:30:04;;;;;;;5.07;4.53;;;;;;;28.30;26.04;99885.56;5036733;28;20531;-88
2021/09/08 12:32:52;;;;;;;6.65;4.82;;;;;;;28.35;25.72;99884.59;5036649;28;20573;-85
2021/09/08 12:35:43;;;;;;;5.30;4.80;;;;;;;28.36;25.31;99880.69;5020472;28;20299;-90
2021/09/08 12:38:27;;;;;;;4.97;4.43;;;;;;;28.34;26.44;99870.00;5036429;28;20224;-88